Time;durP1;ratioP1;P1;durP2;ratioP2;P2;SDS_P1;SDS_P2;PMS_P1;PMS_P2;Temp;Humidity;BMP_temperature;BMP_pressure;BME280_temperature;BME280_humidity;BME280_pressure;Samples;Min_cycle;Max_cycle;Signal;HPM_P1;HPM_P2
2022/08/14 00:02:04;;;;;;;;;5.00;5.00;;;;;28.05;26.21;100572.84;5060616;28;45154;-61
2022/08/14 00:04:32;;;;;;;;;6.75;6.00;;;;;28.00;26.15;100558.25;5060589;28;45335;-61
2022/08/14 00:06:57;;;;;;;;;6.25;5.00;;;;;27.97;26.33;100564.09;5060744;28;45264;-61
2022/08/14 00:09:23;;;;;;;;;4.50;4.50;;;;;27.95;25.92;100548.03;5060367;28;45576;-61
2022/08/14 00:11:48;;;;;;;;;4.25;4.25;;;;;27.92;26.10;100540.34;5060263;28;45839;-61
2022/08/14 00:14:15;;;;;;;;;6.00;6.00;;;;;27.88;26.02;100546.38;5060367;28;46464;-61
2022/08/14 00:16:40;;;;;;;;;3.00;3.00;;;;;27.80;26.10;100532.00;5060515;28;45316;-60
2022/08/14 00:19:06;;;;;;;;;4.25;3.75;;;;;27.77;26.32;100527.00;5060563;28;45301;-61
2022/08/14 00:21:31;;;;;;;;;4.25;4.25;;;;;27.72;26.41;100526.78;5060426;28;45383;-61
2022/08/14 00:23:57;;;;;;;;;4.25;4.25;;;;;27.67;26.04;100528.47;5058481;28;45366;-61
2022/08/14 00:26:23;;;;;;;;;5.00;4.50;;;;;27.66;26.57;100521.38;5040222;28;45250;-61
2022/08/14 00:28:51;;;;;;;;;5.00;5.00;;;;;27.63;26.52;100510.94;5040328;28;45312;-61
2022/08/14 00:31:17;;;;;;;;;4.00;3.25;;;;;27.55;26.57;100518.22;5040193;28;45328;-61
2022/08/14 00:33:43;;;;;;;;;5.25;5.00;;;;;27.53;26.58;100516.78;5039927;28;45237;-61
2022/08/14 00:36:08;;;;;;;;;5.00;4.00;;;;;27.51;26.37;100508.03;5046835;28;45727;-61
2022/08/14 00:38:34;;;;;;;;;5.75;4.25;;;;;27.48;26.67;100505.72;5060272;28;45276;-61
2022/08/14 00:41:01;;;;;;;;;4.50;4.50;;;;;27.47;26.72;100504.91;5059947;28;46186;-61
2022/08/14 00:43:27;;;;;;;;;6.75;4.75;;;;;27.45;26.68;100504.28;5060311;28;45327;-61
2022/08/14 00:45:52;;;;;;;;;5.75;4.50;;;;;27.44;26.99;100499.09;5059434;28;45376;-61
2022/08/14 00:48:18;;;;;;;;;4.00;4.00;;;;;27.42;27.06;100501.16;5063869;28;45326;-61
2022/08/14 00:50:44;;;;;;;;;5.00;4.00;;;;;27.39;27.07;100504.28;5063577;28;45369;-61
2022/08/14 00:53:09;;;;;;;;;4.75;4.50;;;;;27.33;27.10;100507.78;5063501;28;45436;-61
2022/08/14 00:55:40;;;;;;;;;4.25;4.00;;;;;27.31;27.11;100504.47;5063493;28;45382;-61
2022/08/14 01:00:51;;;;;;;;;4.50;4.50;;;;;27.23;27.23;100497.38;5063284;28;45183;-61
2022/08/14 01:03:20;;;;;;;;;4.00;4.00;;;;;27.22;27.19;100493.00;5078874;28;45378;-61
2022/08/14 01:05:49;;;;;;;;;4.00;4.00;;;;;27.19;27.48;100483.44;5063202;28;45248;-61
2022/08/14 01:08:20;;;;;;;;;5.75;5.00;;;;;27.16;27.59;100486.53;5063295;28;45173;-61
2022/08/14 01:10:50;;;;;;;;;4.50;4.00;;;;;27.14;27.50;100485.09;5062978;28;46443;-61
2022/08/14 01:13:25;;;;;;;;;5.00;4.50;;;;;27.10;27.60;100478.44;5063468;28;45358;-61
2022/08/14 01:15:54;;;;;;;;;3.50;3.25;;;;;27.07;27.53;100474.25;5062974;28;45405;-62
2022/08/14 01:21:08;;;;;;;;;5.75;5.75;;;;;27.02;27.58;100460.50;5063018;28;45780;-61
2022/08/14 01:23:39;;;;;;;;;5.00;5.00;;;;;27.00;27.34;100455.28;5062638;28;45248;-61
2022/08/14 01:26:06;;;;;;;;;5.00;3.75;;;;;26.96;27.85;100458.63;5042536;28;45519;-60
2022/08/14 01:28:36;;;;;;;;;5.00;4.00;;;;;26.89;27.98;100447.78;5055509;28;45506;-61
2022/08/14 01:31:05;;;;;;;;;3.25;3.25;;;;;26.85;28.10;100446.50;5062660;28;45330;-62
2022/08/14 01:33:31;;;;;;;;;5.00;5.00;;;;;26.85;27.86;100446.50;5063036;28;45317;-61
2022/08/14 01:35:59;;;;;;;;;4.75;4.75;;;;;26.81;28.07;100453.38;5063079;28;45328;-61
2022/08/14 01:38:27;;;;;;;;;5.75;4.75;;;;;26.79;27.95;100450.06;5062859;28;45421;-61
2022/08/14 01:40:52;;;;;;;;;5.50;5.50;;;;;26.78;27.94;100455.66;5061362;28;47237;-61
2022/08/14 01:43:18;;;;;;;;;4.00;4.00;;;;;26.75;27.83;100453.38;5062814;28;45302;-61
2022/08/14 01:45:47;;;;;;;;;6.50;4.50;;;;;26.72;28.10;100462.72;5062830;28;45335;-61
2022/08/14 01:48:14;;;;;;;;;5.25;5.25;;;;;26.69;28.25;100460.41;5062762;28;45171;-61
2022/08/14 01:50:42;;;;;;;;;4.50;3.75;;;;;26.66;28.25;100456.25;5062605;28;45390;-61
2022/08/14 01:53:08;;;;;;;;;6.00;5.00;;;;;26.64;28.41;100461.03;5062534;28;45311;-61
2022/08/14 01:55:37;;;;;;;;;4.75;4.75;;;;;26.65;28.15;100454.59;5062637;28;45324;-61
2022/08/14 01:58:03;;;;;;;;;5.75;5.75;;;;;26.64;28.44;100452.09;5061670;28;45481;-61
2022/08/14 02:00:28;;;;;;;;;5.00;5.00;;;;;26.62;28.23;100451.44;5062521;28;45260;-61
2022/08/14 02:02:55;;;;;;;;;6.00;4.75;;;;;26.61;28.43;100450.59;5062595;28;45298;-61
2022/08/14 02:05:28;;;;;;;;;4.50;4.50;;;;;26.60;28.88;100443.53;5062675;28;45414;-62
2022/08/14 02:07:54;;;;;;;;;3.25;3.25;;;;;26.58;28.54;100444.78;5062503;28;45351;-62
2022/08/14 02:10:20;;;;;;;;;5.00;4.00;;;;;26.52;28.85;100440.19;5062314;28;45494;-61
2022/08/14 02:12:47;;;;;;;;;4.25;4.25;;;;;26.50;28.72;100443.09;5062041;28;45295;-62
2022/08/14 02:15:12;;;;;;;;;7.25;5.00;;;;;26.49;28.46;100438.72;5062320;28;45387;-61
2022/08/14 02:17:38;;;;;;;;;4.75;4.25;;;;;26.49;28.76;100435.19;5062171;28;45322;-61
2022/08/14 02:20:07;;;;;;;;;4.25;4.25;;;;;26.48;28.75;100426.25;5062385;28;45432;-61
2022/08/14 02:22:33;;;;;;;;;5.00;5.00;;;;;26.46;28.70;100422.06;5062117;28;45237;-61
2022/08/14 02:24:59;;;;;;;;;5.75;4.00;;;;;26.48;28.57;100420.88;5051983;28;45246;-61
2022/08/14 02:27:28;;;;;;;;;4.25;4.25;;;;;26.48;29.05;100417.34;5041936;28;45445;-61
2022/08/14 02:29:55;;;;;;;;;5.25;3.75;;;;;26.46;28.92;100417.50;5041899;28;46235;-61
2022/08/14 02:32:20;;;;;;;;;3.50;3.50;;;;;26.44;28.66;100411.47;5041737;28;45379;-62
2022/08/14 02:34:46;;;;;;;;;4.75;4.75;;;;;26.42;28.96;100400.88;5050703;28;45262;-61
2022/08/14 02:37:12;;;;;;;;;4.50;4.00;;;;;26.38;29.12;100401.44;5061929;28;45497;-61
2022/08/14 02:39:42;;;;;;;;;6.25;6.25;;;;;26.37;29.15;100397.91;5062091;28;45535;-61
2022/08/14 02:42:13;;;;;;;;;4.00;4.00;;;;;26.35;29.10;100399.16;5061702;28;45334;-61
2022/08/14 02:44:41;;;;;;;;;5.00;4.00;;;;;26.33;28.81;100401.25;5061969;28;45272;-61
2022/08/14 02:47:07;;;;;;;;;4.25;4.25;;;;;26.30;29.03;100394.34;5061774;28;45405;-61
2022/08/14 02:49:34;;;;;;;;;4.00;4.00;;;;;26.32;29.21;100397.72;5061852;28;46422;-61
2022/08/14 02:51:59;;;;;;;;;4.25;3.75;;;;;26.31;29.25;100395.22;5061643;28;45414;-62
2022/08/14 02:54:25;;;;;;;;;5.00;5.00;;;;;26.28;29.43;100391.03;5061935;28;45330;-61
2022/08/14 02:56:53;;;;;;;;;3.50;3.25;;;;;26.29;29.62;100386.47;5061454;28;45256;-61
2022/08/14 02:59:19;;;;;;;;;5.00;5.00;;;;;26.28;29.50;100382.94;5061743;28;46286;-61
2022/08/14 03:01:44;;;;;;;;;6.00;5.00;;;;;26.24;29.03;100372.75;5061413;28;45312;-61
2022/08/14 03:04:11;;;;;;;;;6.00;4.75;;;;;26.17;29.53;100373.56;5061511;28;45321;-61
2022/08/14 03:06:37;;;;;;;;;4.25;4.25;;;;;26.17;29.20;100378.94;5061548;28;45426;-61
2022/08/14 03:09:04;;;;;;;;;6.75;5.00;;;;;26.16;29.34;100380.00;5060710;28;45942;-62
2022/08/14 03:11:31;;;;;;;;;6.50;6.50;;;;;26.15;29.79;100386.44;5060730;28;45453;-61
2022/08/14 03:13:57;;;;;;;;;7.75;5.50;;;;;26.15;29.56;100393.69;5061257;28;45278;-61
2022/08/14 03:16:24;;;;;;;;;4.00;4.00;;;;;26.13;29.91;100388.47;5061151;28;45172;-61
2022/08/14 03:18:59;;;;;;;;;6.75;5.25;;;;;26.11;29.76;100384.31;5061166;28;46392;-62
2022/08/14 03:21:24;;;;;;;;;5.25;5.00;;;;;26.07;29.69;100374.97;5061107;28;45438;-61
2022/08/14 03:26:33;;;;;;;;;7.00;7.00;;;;;26.12;29.55;100388.69;5049907;28;45313;-61
2022/08/14 03:29:00;;;;;;;;;8.00;8.00;;;;;26.10;30.05;100382.66;5061049;28;45172;-61
2022/08/14 03:31:25;;;;;;;;;5.00;5.00;;;;;26.07;29.90;100383.06;5061256;28;45265;-61
2022/08/14 03:33:51;;;;;;;;;8.75;8.00;;;;;26.03;29.84;100381.78;5061031;28;45228;-61
2022/08/14 03:36:19;;;;;;;;;8.00;6.00;;;;;26.05;30.15;100385.13;5061395;28;45335;-61
2022/08/14 03:38:48;;;;;;;;;8.25;7.00;;;;;26.05;30.07;100382.41;5060722;28;45551;-61
2022/08/14 03:41:19;;;;;;;;;9.25;7.00;;;;;26.05;29.95;100379.72;5060788;28;45269;-61
2022/08/14 03:43:55;;;;;;;;;6.00;6.00;;;;;26.04;30.08;100383.44;5060901;28;45447;-61
2022/08/14 03:46:22;;;;;;;;;8.00;8.00;;;;;26.01;30.11;100381.16;5060966;28;45594;-61
2022/08/14 03:48:48;;;;;;;;;7.00;6.00;;;;;25.99;30.28;100385.91;5060647;28;45235;-61
2022/08/14 03:51:14;;;;;;;;;9.25;7.00;;;;;25.98;29.78;100382.38;5060978;28;45351;-61
2022/08/14 03:53:43;;;;;;;;;7.50;6.75;;;;;25.94;30.10;100386.53;5060861;28;45493;-61
2022/08/14 03:56:12;;;;;;;;;8.25;7.50;;;;;25.91;30.37;100396.88;5060841;28;45466;-61
2022/08/14 03:58:41;;;;;;;;;6.50;5.50;;;;;25.87;30.03;100389.19;5060615;28;45399;-61
2022/08/14 04:01:07;;;;;;;;;6.75;6.75;;;;;25.84;30.61;100399.56;5060636;28;45395;-61
2022/08/14 04:03:34;;;;;;;;;7.50;7.50;;;;;25.81;30.54;100400.75;5060818;28;45367;-60
2022/08/14 04:06:00;;;;;;;;;6.75;6.25;;;;;25.81;30.23;100403.47;5060845;28;45319;-61
2022/08/14 04:08:25;;;;;;;;;7.00;6.00;;;;;25.81;30.37;100399.94;5060835;28;46093;-61
2022/08/14 04:10:51;;;;;;;;;6.75;6.25;;;;;25.81;30.74;100411.56;5060344;28;45720;-61
2022/08/14 04:13:17;;;;;;;;;6.75;6.00;;;;;25.80;30.46;100417.16;5060956;28;45288;-61
2022/08/14 04:15:46;;;;;;;;;8.25;6.00;;;;;25.79;30.75;100416.31;5060625;28;45312;-61
2022/08/14 04:18:12;;;;;;;;;8.25;8.00;;;;;25.77;30.81;100417.56;5060378;28;46153;-61
2022/08/14 04:20:40;;;;;;;;;7.00;6.00;;;;;25.75;30.82;100417.78;5060875;28;45283;-60
2022/08/14 04:23:07;;;;;;;;;5.75;3.75;;;;;25.72;30.44;100404.66;5064392;28;45335;-61
2022/08/14 04:25:35;;;;;;;;;13.00;7.00;;;;;25.70;30.35;100401.28;5057882;28;46358;-61
2022/08/14 04:28:04;;;;;;;;;5.50;5.50;;;;;25.68;30.52;100391.75;5063878;28;45386;-61
2022/08/14 04:30:31;;;;;;;;;9.50;8.75;;;;;25.67;30.64;100398.97;5063518;28;45540;-61
2022/08/14 04:32:57;;;;;;;;;6.25;6.25;;;;;25.68;30.89;100413.31;5063893;28;45215;-60
2022/08/14 04:35:23;;;;;;;;;8.00;8.00;;;;;25.65;30.75;100395.66;5063867;28;46094;-60
2022/08/14 04:43:35;;;;;;;;;6.25;6.25;;;;;25.67;31.18;100396.28;5063746;28;45358;-61
2022/08/14 04:46:01;;;;;;;;;5.75;5.50;;;;;25.68;31.54;100386.34;5063788;28;45260;-61
2022/08/14 04:48:27;;;;;;;;;8.25;7.75;;;;;25.63;31.25;100386.09;5063355;28;46243;-61
2022/08/14 04:50:54;;;;;;;;;7.75;7.75;;;;;25.60;31.22;100374.69;5063671;28;45253;-61
2022/08/14 04:53:22;;;;;;;;;8.00;6.00;;;;;25.58;31.03;100376.72;5063738;28;45271;-61
2022/08/14 04:55:49;;;;;;;;;8.50;8.50;;;;;25.58;31.53;100365.94;5063382;28;45490;-61
2022/08/14 04:58:18;;;;;;;;;9.75;9.75;;;;;25.53;31.02;100363.00;5063183;28;45466;-61
2022/08/14 05:00:49;;;;;;;;;11.50;9.50;;;;;25.52;31.28;100366.75;5063320;28;45256;-61
2022/08/14 05:03:19;;;;;;;;;10.50;10.25;;;;;25.53;32.03;100360.31;5063350;28;45378;-61
2022/08/14 05:05:49;;;;;;;;;11.25;9.50;;;;;25.53;31.22;100356.78;5063364;28;45466;-60
2022/08/14 05:08:16;;;;;;;;;12.50;10.75;;;;;25.50;31.43;100340.97;5062995;28;45273;-61
2022/08/14 05:10:49;;;;;;;;;12.25;10.00;;;;;25.49;31.69;100352.81;5062807;28;45454;-61
2022/08/14 05:13:15;;;;;;;;;11.50;10.00;;;;;25.47;32.00;100353.00;5063379;28;45505;-61
2022/08/14 05:15:41;;;;;;;;;13.50;10.00;;;;;25.45;31.75;100346.97;5063029;28;45315;-61
2022/08/14 05:18:12;;;;;;;;;9.00;9.00;;;;;25.42;31.75;100350.06;5062850;28;45335;-61
2022/08/14 05:20:46;;;;;;;;;15.50;10.75;;;;;25.37;31.42;100341.75;5063006;28;45387;-60
2022/08/14 05:23:13;;;;;;;;;11.00;9.00;;;;;25.34;32.02;100345.66;5063177;28;45418;-61
2022/08/14 05:25:40;;;;;;;;;12.75;9.50;;;;;25.33;31.64;100340.44;5046706;28;45301;-61
2022/08/14 05:28:18;;;;;;;;;12.00;9.00;;;;;25.30;32.09;100347.09;5043018;28;46174;-61
2022/08/14 05:30:54;;;;;;;;;9.25;8.25;;;;;25.27;31.78;100366.31;5041422;28;45383;-61
2022/08/14 05:33:23;;;;;;;;;8.00;8.00;;;;;25.23;31.92;100366.94;5041899;28;45300;-61
2022/08/14 05:35:50;;;;;;;;;6.75;6.00;;;;;25.25;31.91;100356.78;5042963;28;45498;-61
2022/08/14 05:38:19;;;;;;;;;8.25;7.75;;;;;25.30;32.50;100362.44;5042876;28;45323;-61
2022/08/14 05:40:46;;;;;;;;;6.75;6.75;;;;;25.30;32.10;100373.22;5042348;28;45217;-61
2022/08/14 05:43:12;;;;;;;;;11.50;8.25;;;;;25.32;32.83;100363.88;5042881;28;45346;-61
2022/08/14 05:45:38;;;;;;;;;11.25;8.50;;;;;25.36;32.76;100350.00;5042628;28;45399;-61
2022/08/14 05:48:05;;;;;;;;;9.75;9.00;;;;;25.37;32.45;100346.31;5042818;28;45332;-61
2022/08/14 05:50:32;;;;;;;;;9.50;9.50;;;;;25.38;32.18;100343.41;5062341;28;45271;-61
2022/08/14 05:52:57;;;;;;;;;9.00;9.00;;;;;25.48;32.43;100338.47;5062970;28;45269;-61
2022/08/14 05:55:24;;;;;;;;;8.75;8.75;;;;;25.55;32.75;100333.97;5062771;28;45603;-61
2022/08/14 05:57:53;;;;;;;;;9.50;9.50;;;;;25.63;32.29;100340.25;5062267;28;45216;-61
2022/08/14 06:00:23;;;;;;;;;12.25;10.00;;;;;25.71;32.37;100322.06;5062541;28;45323;-61
2022/08/14 06:02:49;;;;;;;;;10.25;7.25;;;;;25.79;32.63;100326.44;5062518;28;45243;-61
2022/08/14 06:05:15;;;;;;;;;12.75;9.00;;;;;25.88;32.48;100334.16;5062739;28;45165;-61
2022/08/14 06:07:40;;;;;;;;;10.75;10.50;;;;;25.95;32.64;100339.59;5062302;28;45276;-61
2022/08/14 06:10:08;;;;;;;;;11.75;11.25;;;;;26.02;32.01;100335.06;5062525;28;45319;-61
2022/08/14 06:12:34;;;;;;;;;10.50;10.00;;;;;26.09;32.26;100335.09;5062165;28;45265;-62
2022/08/14 06:15:00;;;;;;;;;83.50;70.75;;;;;26.19;32.16;100326.63;5061182;28;45297;-62
2022/08/14 06:17:26;;;;;;;;;10.00;9.50;;;;;26.28;32.00;100337.03;5061987;28;45461;-61
2022/08/14 06:19:52;;;;;;;;;8.50;8.50;;;;;26.35;32.27;100337.88;5060938;28;45327;-62
2022/08/14 06:22:17;;;;;;;;;9.25;8.50;;;;;26.35;32.56;100320.84;5062315;28;45323;-62
2022/08/14 06:24:43;;;;;;;;;7.00;7.00;;;;;26.30;32.00;100342.22;5054354;28;45600;-62
2022/08/14 06:27:08;;;;;;;;;6.50;6.50;;;;;26.25;32.47;100329.34;5041748;28;45182;-62
2022/08/14 06:29:36;;;;;;;;;5.50;5.50;;;;;26.26;32.09;100305.88;5042141;28;45197;-62
2022/08/14 06:32:02;;;;;;;;;3.00;2.25;;;;;26.29;31.75;100335.16;5041988;28;45495;-61
2022/08/14 06:34:28;;;;;;;;;6.75;5.00;;;;;26.29;32.02;100329.75;5042073;28;45561;-61
2022/08/14 06:36:55;;;;;;;;;6.25;4.00;;;;;26.28;32.25;100317.28;5041753;28;46020;-62
2022/08/14 06:39:21;;;;;;;;;6.75;5.00;;;;;26.25;31.79;100323.13;5041733;28;45236;-62
2022/08/14 06:41:47;;;;;;;;;4.25;4.25;;;;;26.26;31.96;100325.59;5041652;28;45327;-62
2022/08/14 06:44:12;;;;;;;;;5.00;4.00;;;;;26.24;31.73;100327.69;5041610;28;45245;-62
2022/08/14 06:46:38;;;;;;;;;5.00;5.00;;;;;26.24;31.49;100316.03;5041572;28;45245;-62
2022/08/14 06:49:03;;;;;;;;;6.00;5.75;;;;;26.25;31.72;100323.94;5049232;28;45408;-61
2022/08/14 06:51:29;;;;;;;;;6.25;4.75;;;;;26.27;31.69;100343.47;5061806;28;45313;-61
2022/08/14 06:53:55;;;;;;;;;5.00;5.00;;;;;26.25;32.10;100333.91;5061735;28;45392;-61
2022/08/14 06:56:22;;;;;;;;;5.75;5.00;;;;;26.20;32.05;100337.22;5061347;28;45172;-62
2022/08/14 06:58:48;;;;;;;;;6.75;5.25;;;;;26.15;32.15;100342.41;5061624;28;45334;-62
2022/08/14 07:06:42;;;;;;;;;7.25;5.25;;;;;26.15;32.30;100339.69;5061443;28;45682;-61
2022/08/14 07:09:09;;;;;;;;;6.00;5.00;;;;;26.14;32.34;100332.59;5061438;28;45454;-62
2022/08/14 07:11:35;;;;;;;;;8.50;6.00;;;;;26.16;32.29;100328.69;5061220;28;45280;-61
2022/08/14 07:14:00;;;;;;;;;9.25;5.50;;;;;26.20;32.20;100333.69;5061326;28;45388;-62
2022/08/14 07:16:26;;;;;;;;;4.00;3.25;;;;;26.24;31.84;100337.66;5061173;28;45283;-60
2022/08/14 07:18:51;;;;;;;;;4.50;4.50;;;;;26.24;31.76;100338.47;5061375;28;45244;-61
2022/08/14 07:21:17;;;;;;;;;5.25;4.75;;;;;26.26;32.17;100341.81;5061405;28;45299;-61
2022/08/14 07:23:42;;;;;;;;;5.00;5.00;;;;;26.29;31.66;100337.84;5060933;28;45615;-62
2022/08/14 07:26:09;;;;;;;;;8.00;6.00;;;;;26.36;31.92;100342.25;5041356;28;45224;-61
2022/08/14 07:28:37;;;;;;;;;7.25;5.00;;;;;26.42;31.96;100352.28;5041055;28;45194;-61
2022/08/14 07:31:05;;;;;;;;;6.75;6.50;;;;;26.49;31.86;100357.69;5040885;28;45309;-61
2022/08/14 07:33:45;;;;;;;;;6.75;4.75;;;;;26.52;31.46;100359.97;5040959;28;45356;-61
2022/08/14 07:36:13;;;;;;;;;5.25;5.25;;;;;26.57;31.49;100365.59;5047523;28;45390;-61
2022/08/14 07:38:42;;;;;;;;;7.50;5.00;;;;;26.66;31.52;100345.47;5061031;28;45314;-61
2022/08/14 07:41:09;;;;;;;;;5.00;5.00;;;;;26.72;31.68;100341.13;5060808;28;45339;-61
2022/08/14 07:43:36;;;;;;;;;7.75;7.75;;;;;26.77;31.51;100348.59;5060945;28;45175;-61
2022/08/14 07:46:03;;;;;;;;;6.00;4.25;;;;;26.82;31.25;100357.75;5060753;28;45382;-61
2022/08/14 07:48:29;;;;;;;;;6.00;4.50;;;;;26.91;31.55;100361.09;5060794;28;45484;-62
2022/08/14 07:50:54;;;;;;;;;4.00;4.00;;;;;26.96;31.27;100366.72;5061044;28;45415;-62
2022/08/14 07:53:20;;;;;;;;;5.75;4.75;;;;;27.01;31.13;100350.69;5060913;28;45457;-61
2022/08/14 07:55:46;;;;;;;;;5.75;4.25;;;;;27.03;30.92;100350.50;5061116;28;46096;-61
2022/08/14 07:58:12;;;;;;;;;7.00;6.00;;;;;27.06;30.78;100336.59;5064353;28;45212;-61
2022/08/14 08:00:38;;;;;;;;;6.25;6.25;;;;;27.08;30.76;100326.38;5064344;28;45379;-61
2022/08/14 08:03:08;;;;;;;;;5.25;5.25;;;;;27.10;30.75;100317.03;5064527;28;45236;-61
2022/08/14 08:05:35;;;;;;;;;5.75;5.75;;;;;27.10;30.96;100327.03;5064170;28;45314;-61
2022/08/14 08:08:03;;;;;;;;;6.50;6.50;;;;;27.07;30.70;100335.53;5064315;28;45386;-61
2022/08/14 08:10:31;;;;;;;;;4.50;4.50;;;;;27.06;30.59;100334.72;5064140;28;45287;-61
2022/08/14 08:13:09;;;;;;;;;6.75;6.75;;;;;27.07;30.80;100347.19;5064096;28;45524;-62
2022/08/14 08:15:37;;;;;;;;;5.00;4.25;;;;;27.09;30.90;100347.81;5063843;28;45569;-61
2022/08/14 08:18:07;;;;;;;;;5.75;5.00;;;;;27.15;30.79;100341.56;5064000;28;45477;-61
2022/08/14 08:20:35;;;;;;;;;7.75;4.50;;;;;27.25;30.68;100335.72;5064039;28;45384;-61
2022/08/14 08:23:04;;;;;;;;;7.00;6.00;;;;;27.34;30.66;100339.91;5064300;28;45244;-61
2022/08/14 08:25:32;;;;;;;;;6.75;5.75;;;;;27.37;30.61;100344.88;5048536;28;46467;-61
2022/08/14 08:28:03;;;;;;;;;6.00;5.25;;;;;27.39;30.54;100350.91;5063821;28;45244;-61
2022/08/14 08:30:31;;;;;;;;;3.25;3.25;;;;;27.45;30.47;100350.06;5063792;28;45260;-61
2022/08/14 08:33:00;;;;;;;;;8.00;7.00;;;;;27.48;30.20;100346.09;5063871;28;45393;-61
2022/08/14 08:35:28;;;;;;;;;6.25;6.00;;;;;27.48;30.46;100348.81;5063726;28;46162;-61
2022/08/14 08:38:00;;;;;;;;;6.50;6.50;;;;;27.51;30.26;100360.06;5063680;28;45249;-61
2022/08/14 08:40:29;;;;;;;;;5.00;5.00;;;;;27.52;30.26;100361.72;5063305;28;45392;-61
2022/08/14 08:42:54;;;;;;;;;7.00;5.75;;;;;27.57;30.22;100366.50;5063545;28;45531;-61
2022/08/14 08:45:21;;;;;;;;;3.75;3.00;;;;;27.64;30.14;100370.00;5063426;28;45650;-61
2022/08/14 08:47:49;;;;;;;;;5.75;5.75;;;;;27.74;30.23;100361.50;5063602;28;45273;-61
2022/08/14 08:50:29;;;;;;;;;4.25;3.75;;;;;27.83;30.01;100364.81;5063425;28;45349;-61
2022/08/14 08:53:00;;;;;;;;;4.75;4.50;;;;;27.87;29.83;100364.16;5063694;28;45233;-61
2022/08/14 08:55:49;;;;;;;;;4.00;3.25;;;;;27.95;29.90;100360.38;5063201;28;46338;-61
2022/08/14 08:58:18;;;;;;;;;4.25;2.50;;;;;27.99;29.88;100348.91;5063493;28;45238;-61
2022/08/14 09:00:50;;;;;;;;;5.25;5.25;;;;;28.03;29.68;100347.44;5063484;28;45274;-61
2022/08/14 09:03:20;;;;;;;;;5.25;5.25;;;;;28.03;29.99;100338.47;5063377;28;45363;-61
2022/08/14 09:05:55;;;;;;;;;5.00;5.00;;;;;28.04;29.56;100335.59;5063395;28;46102;-61
2022/08/14 09:08:23;;;;;;;;;6.00;4.25;;;;;28.06;29.82;100333.47;5063165;28;45417;-61
2022/08/14 09:10:49;;;;;;;;;4.00;4.00;;;;;28.13;29.35;100330.75;5063188;28;45444;-61
2022/08/14 09:13:15;;;;;;;;;5.00;5.00;;;;;28.18;29.72;100330.09;5063585;28;45157;-60
2022/08/14 09:15:44;;;;;;;;;6.00;3.25;;;;;28.23;29.99;100331.09;5062978;28;45172;-61
2022/08/14 09:18:10;;;;;;;;;7.25;5.25;;;;;28.30;30.09;100325.69;5063227;28;45469;-61
2022/08/14 09:20:42;;;;;;;;;5.00;5.00;;;;;28.39;30.32;100331.69;5063295;28;45267;-61
2022/08/14 09:23:12;;;;;;;;;6.50;6.25;;;;;28.44;30.03;100335.41;5063250;28;45441;-61
2022/08/14 09:25:40;;;;;;;;;12.00;8.00;;;;;28.44;30.71;100337.25;5057623;28;45243;-61
2022/08/14 09:28:07;;;;;;;;;10.75;7.00;;;;;28.43;30.44;100325.59;5063063;28;45362;-61
2022/08/14 09:30:35;;;;;;;;;7.50;6.25;;;;;28.47;30.64;100315.16;5063016;28;45268;-61
2022/08/14 09:33:01;;;;;;;;;9.25;6.50;;;;;28.53;31.40;100307.00;5063052;28;45406;-61
2022/08/14 09:35:48;;;;;;;;;12.25;8.25;;;;;28.58;31.16;100320.69;5060606;28;46305;-61
2022/08/14 09:38:41;;;;;;;;;8.50;7.00;;;;;28.62;31.41;100326.53;5062748;28;45176;-61
2022/08/14 09:41:39;;;;;;;;;10.75;7.25;;;;;28.62;31.20;100332.78;5062666;28;45313;-61
2022/08/14 09:44:18;;;;;;;;;7.75;5.75;;;;;28.67;31.90;100326.69;5063119;28;45224;-61
2022/08/14 09:46:56;;;;;;;;;12.75;11.00;;;;;28.68;31.40;100322.94;5062587;28;46625;-61
2022/08/14 09:49:38;;;;;;;;;6.25;6.25;;;;;28.74;31.68;100324.75;5062480;28;45438;-61
2022/08/14 09:52:16;;;;;;;;;18.50;16.75;;;;;28.80;32.07;100332.03;5062674;28;45351;-61
2022/08/14 09:54:47;;;;;;;;;8.50;6.50;;;;;28.87;32.04;100337.41;5062707;28;45569;-61
2022/08/14 09:57:32;;;;;;;;;5.75;5.00;;;;;28.91;31.74;100336.78;5062314;28;45658;-61
2022/08/14 10:00:09;;;;;;;;;6.50;6.50;;;;;29.02;32.11;100337.09;5062091;28;45260;-61
2022/08/14 10:02:34;;;;;;;;;1.00;0.25;;;;;29.09;32.15;100341.41;5062742;28;45357;-61
2022/08/14 10:05:09;;;;;;;;;6.50;5.25;;;;;29.18;31.84;100337.38;5062491;28;45431;-61
2022/08/14 10:07:49;;;;;;;;;6.00;5.75;;;;;29.25;31.80;100320.22;5062441;28;46200;-61
2022/08/14 10:10:38;;;;;;;;;7.75;4.25;;;;;29.34;32.58;100319.69;5062048;27;45322;-61
2022/08/14 10:13:07;;;;;;;;;4.75;4.75;;;;;29.47;32.44;100330.41;5062313;28;45430;-61
2022/08/14 10:15:43;;;;;;;;;5.00;5.00;;;;;29.62;32.34;100324.63;5062334;28;45503;-61
2022/08/14 10:18:14;;;;;;;;;5.25;5.25;;;;;29.74;32.02;100325.56;5061679;28;45169;-61
2022/08/14 10:20:44;;;;;;;;;4.75;4.75;;;;;29.81;32.01;100325.47;5061782;28;45325;-61
2022/08/14 10:23:12;;;;;;;;;5.75;3.75;;;;;29.90;32.52;100323.28;5062123;28;45177;-61
2022/08/14 10:25:44;;;;;;;;;7.00;5.00;;;;;29.96;32.05;100317.78;5047501;28;45406;-61
2022/08/14 10:28:14;;;;;;;;;5.50;4.25;;;;;30.01;32.18;100314.34;5041987;28;46114;-61
2022/08/14 10:30:41;;;;;;;;;7.00;5.00;;;;;30.01;32.42;100309.75;5041488;28;45405;-61
2022/08/14 10:33:06;;;;;;;;;6.75;4.75;;;;;30.08;32.28;100308.84;5041806;28;45323;-61
2022/08/14 10:35:40;;;;;;;;;5.75;4.00;;;;;30.09;32.54;100305.09;5041685;28;45508;-61
2022/08/14 10:38:06;;;;;;;;;5.00;4.00;;;;;30.08;31.79;100308.84;5041591;28;45424;-61
2022/08/14 10:40:31;;;;;;;;;5.25;5.00;;;;;30.07;32.17;100301.75;5041366;28;45324;-61
2022/08/14 10:42:57;;;;;;;;;6.25;5.00;;;;;30.07;31.64;100309.91;5041715;28;45251;-61
2022/08/14 10:45:32;;;;;;;;;4.75;4.75;;;;;30.12;32.16;100315.53;5041590;28;45474;-61
2022/08/14 10:47:57;;;;;;;;;3.75;3.50;;;;;30.13;32.33;100306.31;5041563;28;45251;-61
2022/08/14 10:50:35;;;;;;;;;5.25;4.00;;;;;30.14;32.10;100316.94;5059954;28;45445;-61
2022/08/14 10:53:04;;;;;;;;;4.25;3.50;;;;;30.16;31.76;100316.69;5061879;28;45449;-61
2022/08/14 10:55:39;;;;;;;;;6.75;3.75;;;;;30.18;32.26;100320.03;5061608;28;46477;-61
2022/08/14 10:58:10;;;;;;;;;3.00;3.00;;;;;30.19;31.83;100316.25;5061584;28;46458;-63
2022/08/14 11:00:38;;;;;;;;;5.75;5.75;;;;;30.21;31.74;100322.28;5061350;28;45279;-61
2022/08/14 11:03:12;;;;;;;;;6.00;4.50;;;;;30.23;32.35;100331.84;5061550;28;45459;-60
2022/08/14 11:05:43;;;;;;;;;4.00;4.00;;;;;30.23;31.68;100329.13;5060253;28;45432;-60
2022/08/14 11:08:10;;;;;;;;;7.00;5.25;;;;;30.24;31.58;100321.81;5061415;28;45503;-61
2022/08/14 11:10:49;;;;;;;;;5.00;5.00;;;;;30.25;31.97;100329.72;5061252;28;45228;-61
2022/08/14 11:13:26;;;;;;;;;6.00;4.75;;;;;30.26;32.28;100325.16;5061327;28;45332;-60
2022/08/14 11:15:54;;;;;;;;;5.00;5.00;;;;;30.26;32.12;100323.25;5061033;28;45414;-61
2022/08/14 11:18:20;;;;;;;;;4.00;4.00;;;;;30.26;32.17;100325.97;5061114;28;45339;-60
2022/08/14 11:20:55;;;;;;;;;5.00;3.25;;;;;30.26;31.84;100322.44;5059920;28;45209;-61
2022/08/14 11:23:27;;;;;;;;;5.25;4.25;;;;;30.28;32.34;100329.28;5056535;28;45336;-64
2022/08/14 11:25:55;;;;;;;;;5.00;5.00;;;;;30.28;31.74;100326.56;5057588;28;45192;-60
2022/08/14 11:28:26;;;;;;;;;49.25;39.50;;;;;30.21;31.50;100333.97;5060972;28;45275;-60
2022/08/14 11:30:52;;;;;;;;;10.50;10.00;;;;;30.16;32.14;100335.72;5059917;28;45462;-59
2022/08/14 11:33:29;;;;;;;;;5.00;5.00;;;;;30.09;32.46;100332.25;5060961;28;45328;-61
2022/08/14 11:35:59;;;;;;;;;5.25;5.25;;;;;30.10;32.38;100332.06;5060885;28;45448;-61
2022/08/14 11:38:25;;;;;;;;;4.00;4.00;;;;;30.11;32.63;100330.16;5061113;28;46148;-61
2022/08/14 11:40:51;;;;;;;;;10.00;8.25;;;;;30.11;32.46;100327.44;5060649;28;45363;-61
2022/08/14 11:43:17;;;;;;;;;6.00;4.00;;;;;30.10;32.88;100321.19;5061257;28;45279;-61
2022/08/14 11:45:47;;;;;;;;;6.75;6.25;;;;;30.10;31.97;100336.63;5060794;28;45502;-61
2022/08/14 11:48:24;;;;;;;;;8.25;7.00;;;;;30.09;32.69;100321.38;5059431;28;47253;-60
2022/08/14 11:50:54;;;;;;;;;8.25;7.50;;;;;30.11;32.62;100332.88;5060856;28;45368;-60